Time;durP1;ratioP1;P1;durP2;ratioP2;P2;SDS_P1;SDS_P2;PMS_P1;PMS_P2;Temp;Humidity;BMP_temperature;BMP_pressure;BME280_temperature;BME280_humidity;BME280_pressure;Samples;Min_cycle;Max_cycle;Signal;HPM_P1;HPM_P2
2023/01/02 00:02:19;;;;;;;316.85;158.55;;;;;;;8.21;79.19;99574.56;4946086;29;20051;-60
2023/01/02 00:04:54;;;;;;;324.90;164.98;;;;;;;8.24;78.59;99575.09;4970189;28;20054;-60
2023/01/02 00:07:44;;;;;;;303.38;158.23;;;;;;;8.19;78.92;99571.28;4965535;28;20047;-59
2023/01/02 00:10:33;;;;;;;311.02;156.15;;;;;;;7.97;79.44;99573.44;4963145;28;20541;-60
2023/01/02 00:13:15;;;;;;;317.30;160.10;;;;;;;8.06;79.54;99577.78;4967002;28;20066;-60
2023/01/02 00:16:04;;;;;;;313.40;159.95;;;;;;;8.11;79.17;99572.03;4964815;28;20090;-60
2023/01/02 00:18:46;;;;;;;304.00;156.85;;;;;;;8.17;78.92;99573.22;4965188;28;20065;-60
2023/01/02 00:21:35;;;;;;;302.52;154.95;;;;;;;8.43;78.10;99559.06;4966281;28;20130;-60
2023/01/02 00:24:24;;;;;;;312.15;162.93;;;;;;;8.29;78.21;99559.63;4963292;28;20053;-61
2023/01/02 00:27:13;;;;;;;316.95;163.18;;;;;;;8.30;78.71;99563.13;4966341;28;20046;-58
2023/01/02 00:30:02;;;;;;;313.10;164.27;;;;;;;8.07;78.50;99571.53;4967202;28;20153;-61
2023/01/02 00:32:45;;;;;;;306.52;164.02;;;;;;;7.89;79.42;99575.19;4963171;28;20047;-60
2023/01/02 00:35:44;;;;;;;309.70;157.18;;;;;;;8.03;79.12;99574.63;4965401;28;20065;-60
2023/01/02 00:38:20;;;;;;;341.90;171.95;;;;;;;8.21;78.93;99582.50;4964096;28;20051;-60
2023/01/02 00:41:09;;;;;;;330.73;174.38;;;;;;;8.05;79.22;99586.66;4966129;28;20054;-60
2023/01/02 00:43:51;;;;;;;331.25;172.23;;;;;;;8.02;79.63;99586.97;4966595;28;20078;-60
2023/01/02 00:46:46;;;;;;;332.67;171.20;;;;;;;8.22;79.32;99595.53;4961770;28;20051;-61
2023/01/02 00:49:35;;;;;;;318.27;173.38;;;;;;;8.03;79.54;99585.19;4965227;28;20070;-60
2023/01/02 00:52:24;;;;;;;327.33;166.57;;;;;;;7.84;80.04;99593.25;4955490;28;20550;-60
2023/01/02 00:55:06;;;;;;;324.83;173.30;;;;;;;7.81;80.13;99597.06;4949465;28;20047;-60
2023/01/02 00:57:55;;;;;;;309.95;164.23;;;;;;;7.99;79.83;99597.84;4962953;28;20050;-62
2023/01/02 01:00:37;;;;;;;319.50;170.70;;;;;;;8.06;79.32;99609.44;4966103;28;20120;-61
2023/01/02 01:03:26;;;;;;;330.83;171.20;;;;;;;8.08;79.11;99612.75;4942011;28;20113;-61
2023/01/02 01:06:09;;;;;;;331.25;178.60;;;;;;;8.04;79.57;99616.69;4938780;28;20052;-57
2023/01/02 01:08:58;;;;;;;355.65;183.25;;;;;;;8.09;79.53;99617.06;4943431;28;20047;-59
2023/01/02 01:11:53;;;;;;;348.85;182.77;;;;;;;8.10;79.02;99621.31;4975093;28;20050;-59
2023/01/02 01:14:29;;;;;;;339.88;181.98;;;;;;;7.94;79.94;99625.66;4962804;28;20474;-59
2023/01/02 01:17:25;;;;;;;338.85;187.05;;;;;;;8.07;79.34;99632.19;4983683;28;20074;-59
2023/01/02 01:20:00;;;;;;;346.55;184.82;;;;;;;8.06;79.33;99641.09;4982506;28;20640;-60
2023/01/02 01:22:49;;;;;;;332.02;180.85;;;;;;;8.16;78.92;99634.88;4982439;28;20164;-60
2023/01/02 01:25:38;;;;;;;346.77;180.98;;;;;;;8.15;78.40;99634.06;4984994;28;20058;-61
2023/01/02 01:28:27;;;;;;;344.55;178.77;;;;;;;7.94;79.07;99644.94;4983288;28;20390;-60
2023/01/02 01:31:19;;;;;;;334.35;176.98;;;;;;;8.04;79.12;99647.50;4983791;28;20057;-60
2023/01/02 01:34:01;;;;;;;337.17;181.20;;;;;;;7.99;79.29;99650.59;4982340;28;20050;-60
2023/01/02 01:36:50;;;;;;;344.33;181.52;;;;;;;8.13;79.19;99650.06;4963785;28;20747;-61
2023/01/02 01:39:32;;;;;;;344.08;179.98;;;;;;;8.14;78.50;99642.97;4967029;28;20047;-60
2023/01/02 01:42:22;;;;;;;339.08;182.63;;;;;;;8.01;78.96;99647.81;4983193;28;20049;-59
2023/01/02 01:45:12;;;;;;;328.88;177.07;;;;;;;7.84;79.21;99651.28;4982755;28;20774;-61
2023/01/02 01:48:06;;;;;;;332.33;179.63;;;;;;;8.12;78.76;99645.75;4990060;28;20062;-60
2023/01/02 01:50:48;;;;;;;349.98;178.80;;;;;;;8.22;78.42;99650.13;4994973;28;20053;-60
2023/01/02 01:53:38;;;;;;;342.35;184.82;;;;;;;8.07;78.34;99645.38;4991496;28;20050;-61
2023/01/02 01:56:20;;;;;;;351.10;185.80;;;;;;;8.19;78.35;99637.25;4995643;28;20050;-60
2023/01/02 01:59:09;;;;;;;373.92;197.60;;;;;;;8.10;77.82;99644.25;4993001;28;20469;-61
2023/01/02 02:02:04;;;;;;;363.10;196.85;;;;;;;7.74;78.51;99645.28;4976227;28;20404;-61
2023/01/02 02:04:43;;;;;;;370.48;198.25;;;;;;;7.72;79.23;99650.69;4990658;28;20145;-60
2023/01/02 02:07:41;;;;;;;395.23;210.23;;;;;;;7.96;79.26;99653.56;4994263;28;20054;-60
2023/01/02 02:10:36;;;;;;;404.55;213.20;;;;;;;8.35;78.04;99663.75;4994377;28;20042;-60
2023/01/02 02:13:12;;;;;;;431.25;222.50;;;;;;;8.29;77.48;99659.91;4994683;28;20473;-60
2023/01/02 02:16:36;;;;;;;457.42;234.13;;;;;;;8.32;77.15;99654.31;4995930;28;20766;-61
2023/01/02 02:19:36;;;;;;;456.48;235.57;;;;;;;8.03;77.65;99667.78;4982809;28;20042;-60
2023/01/02 02:23:00;;;;;;;469.73;237.98;;;;;;;7.85;78.49;99674.88;4993403;28;20105;-61
2023/01/02 02:26:27;;;;;;;468.77;229.55;;;;;;;7.67;79.10;99687.22;4992029;28;20060;-60
2023/01/02 02:29:54;;;;;;;466.55;227.65;;;;;;;7.76;79.15;99686.31;4997566;28;20037;-60
2023/01/02 02:33:19;;;;;;;459.52;227.38;;;;;;;7.61;79.51;99696.53;4987959;28;20124;-61
2023/01/02 02:36:29;;;;;;;451.55;225.23;;;;;;;7.68;79.12;99712.63;4996674;28;20047;-58
2023/01/02 02:39:30;;;;;;;452.58;228.80;;;;;;;7.48;80.02;99713.72;4997435;28;20668;-60
2023/01/02 02:42:41;;;;;;;448.48;216.23;;;;;;;7.44;80.29;99715.81;4987307;28;20050;-59
2023/01/02 02:45:48;;;;;;;396.42;187.60;;;;;;;7.22;81.81;99718.84;4974536;28;20481;-61
2023/01/02 02:48:50;;;;;;;429.42;179.75;;;;;;;7.01;83.07;99728.78;4989229;28;20050;-60
2023/01/02 02:52:02;;;;;;;419.42;183.23;;;;;;;6.99;84.00;99733.38;4987404;28;20042;-62
2023/01/02 02:55:00;;;;;;;449.08;185.30;;;;;;;7.05;84.20;99738.88;4961053;28;20128;-61
2023/01/02 02:57:51;;;;;;;417.98;181.13;;;;;;;7.10;85.03;99748.97;4987130;28;20050;-60
2023/01/02 03:00:40;;;;;;;493.98;198.63;;;;;;;6.90;85.21;99755.31;4978909;28;20061;-61
2023/01/02 03:03:28;;;;;;;449.27;195.23;;;;;;;6.94;85.54;99757.50;4984409;28;20051;-60
2023/01/02 03:06:17;;;;;;;460.85;200.45;;;;;;;6.94;85.29;99764.56;4984955;28;20097;-61
2023/01/02 03:09:23;;;;;;;472.80;208.95;;;;;;;7.04;85.93;99768.81;4985981;28;20044;-61
2023/01/02 03:12:18;;;;;;;501.83;202.23;;;;;;;7.09;85.50;99779.75;4987033;28;20134;-61
2023/01/02 03:15:35;;;;;;;489.40;212.18;;;;;;;7.16;86.17;99774.75;4985281;28;20042;-61
2023/01/02 03:18:33;;;;;;;492.17;215.07;;;;;;;7.23;85.93;99789.84;4985955;28;20838;-61
2023/01/02 03:21:51;;;;;;;501.52;219.90;;;;;;;7.06;85.61;99787.94;4984292;28;20054;-61
2023/01/02 03:24:43;;;;;;;501.67;215.13;;;;;;;7.08;85.82;99790.47;4983374;28;20054;-61
2023/01/02 03:27:40;;;;;;;540.50;211.85;;;;;;;7.09;86.43;99798.19;4982789;28;20053;-60
2023/01/02 03:30:22;;;;;;;501.90;195.35;;;;;;;7.01;85.75;99811.25;4985723;28;20088;-60
2023/01/02 03:33:17;;;;;;;485.17;183.88;;;;;;;7.05;86.38;99802.09;4985645;28;20615;-60
2023/01/02 03:36:20;;;;;;;418.42;180.48;;;;;;;7.46;86.39;99803.47;4984653;28;20074;-60
2023/01/02 03:39:08;;;;;;;453.70;170.30;;;;;;;7.22;85.89;99808.41;4986477;28;20046;-60
2023/01/02 03:41:58;;;;;;;419.50;176.90;;;;;;;7.36;86.52;99809.75;4986081;28;20053;-60
2023/01/02 03:44:48;;;;;;;449.90;186.63;;;;;;;7.45;86.83;99814.16;4985643;28;20050;-60
2023/01/02 03:47:55;;;;;;;482.48;206.73;;;;;;;7.65;86.90;99821.00;4990971;28;21535;-60
2023/01/02 03:50:52;;;;;;;472.40;205.65;;;;;;;7.73;85.89;99830.81;4983183;28;20563;-61
2023/01/02 03:53:44;;;;;;;541.35;193.60;;;;;;;7.34;86.45;99835.44;4997010;28;20060;-60
2023/01/02 03:56:58;;;;;;;596.75;184.13;;;;;;;7.41;86.88;99842.59;4986589;28;20053;-60
2023/01/02 04:00:04;;;;;;;455.33;177.95;;;;;;;7.49;86.82;99839.25;4988896;28;20054;-60
2023/01/02 04:03:03;;;;;;;475.35;183.50;;;;;;;7.59;87.19;99847.94;4986737;28;20061;-59
2023/01/02 04:06:04;;;;;;;469.05;198.32;;;;;;;7.80;87.42;99845.91;4987262;28;20050;-60
2023/01/02 04:09:15;;;;;;;513.78;202.02;;;;;;;7.70;87.23;99845.09;4996271;28;20050;-64
2023/01/02 04:12:00;;;;;;;;;;;;;;;8.06;87.13;99840.75;4997218;28;20058;-61
2023/01/02 04:15:09;;;;;;;509.02;203.23;;;;;;;8.15;86.34;99847.78;4994925;28;19964;-60
2023/01/02 04:18:11;;;;;;;486.90;208.18;;;;;;;8.44;86.66;99852.88;4992770;28;20061;-60
2023/01/02 04:21:08;;;;;;;406.88;174.20;;;;;;;8.28;86.53;99852.69;4995999;28;20132;-60
2023/01/02 04:24:00;;;;;;;429.92;174.30;;;;;;;8.24;86.43;99861.88;4990905;28;20054;-60
2023/01/02 04:27:19;;;;;;;433.90;183.75;;;;;;;8.44;87.18;99866.94;4991830;28;20773;-60
2023/01/02 04:29:55;;;;;;;419.90;170.32;;;;;;;8.26;86.71;99873.13;4996779;28;20049;-62
2023/01/02 04:32:53;;;;;;;419.42;167.32;;;;;;;8.39;86.82;99869.19;4991557;28;20047;-60
2023/01/02 04:35:28;;;;;;;399.73;167.50;;;;;;;8.58;86.13;99878.78;4992986;28;20046;-60
2023/01/02 04:38:18;;;;;;;411.67;161.15;;;;;;;8.49;85.90;99880.50;4985437;28;20064;-60
2023/01/02 04:41:00;;;;;;;476.80;163.88;;;;;;;8.31;86.44;99886.75;4994052;28;20470;-61
2023/01/02 04:43:49;;;;;;;384.48;162.45;;;;;;;8.24;86.87;99891.75;4972201;28;20054;-60
2023/01/02 04:46:38;;;;;;;458.15;189.13;;;;;;;8.56;86.90;99886.00;4994837;28;20436;-59
2023/01/02 04:49:26;;;;;;;519.28;216.75;;;;;;;8.85;86.73;99893.72;4988153;28;20041;-59
2023/01/02 04:52:15;;;;;;;609.65;221.20;;;;;;;8.63;85.74;99892.31;4998385;28;20045;-60
2023/01/02 04:55:05;;;;;;;505.52;213.73;;;;;;;8.68;86.42;99890.06;5004988;28;20046;-61
2023/01/02 04:57:47;;;;;;;566.08;247.55;;;;;;;8.88;86.10;99894.22;4989927;28;20085;-59
2023/01/02 05:00:36;;;;;;;576.35;233.30;;;;;;;8.97;85.39;99903.03;4999771;28;20115;-60
2023/01/02 05:03:18;;;;;;;506.13;204.65;;;;;;;8.99;84.63;99903.72;5002083;28;20051;-60
2023/01/02 05:06:07;;;;;;;490.40;200.60;;;;;;;9.19;84.74;99893.81;4991186;28;20064;-60
2023/01/02 05:08:49;;;;;;;457.10;188.05;;;;;;;9.14;83.97;99896.91;4986052;28;20054;-60
2023/01/02 05:11:38;;;;;;;429.25;174.25;;;;;;;9.15;84.26;99900.38;5001549;28;20065;-60
2023/01/02 05:14:20;;;;;;;393.23;163.65;;;;;;;9.16;83.63;99904.69;4997335;28;20049;-60
2023/01/02 05:17:09;;;;;;;402.92;167.32;;;;;;;9.18;83.98;99894.78;5001003;28;20141;-61
2023/01/02 05:19:51;;;;;;;397.05;164.00;;;;;;;9.38;83.72;99899.69;5000557;28;20062;-60
2023/01/02 05:25:47;;;;;;;412.77;170.93;;;;;;;9.54;82.93;99903.44;5002781;28;20053;-58
2023/01/02 05:28:29;;;;;;;407.17;166.48;;;;;;;9.37;82.85;99902.53;5001468;28;20058;-58
2023/01/02 05:31:20;;;;;;;377.33;156.35;;;;;;;9.21;82.92;99899.75;5001322;28;20611;-58
2023/01/02 05:34:04;;;;;;;365.67;153.68;;;;;;;9.06;83.30;99891.56;4999324;28;20042;-60
2023/01/02 05:36:53;;;;;;;364.80;154.88;;;;;;;9.37;83.54;99897.22;4997729;28;20376;-59
2023/01/02 05:39:42;;;;;;;433.35;178.85;;;;;;;9.30;83.16;99891.72;4992097;28;20057;-60
2023/01/02 05:42:37;;;;;;;419.52;178.10;;;;;;;9.41;83.24;99893.28;5001120;28;20060;-60
2023/01/02 05:45:12;;;;;;;407.10;171.63;;;;;;;9.28;83.27;99888.41;5001129;28;20053;-57
2023/01/02 05:48:08;;;;;;;434.15;184.13;;;;;;;9.48;82.85;99884.56;4999440;28;20519;-56
2023/01/02 05:50:43;;;;;;;427.50;180.18;;;;;;;9.63;83.42;99884.81;4974491;28;20061;-56
2023/01/02 05:53:32;;;;;;;482.17;210.93;;;;;;;9.82;82.62;99876.63;4987796;28;20142;-59
2023/01/02 05:56:23;;;;;;;484.92;215.00;;;;;;;9.75;82.30;99874.78;4992770;28;20077;-58
2023/01/02 05:59:07;;;;;;;479.70;209.02;;;;;;;9.74;81.84;99881.06;4990387;28;20049;-59
2023/01/02 06:01:56;;;;;;;478.00;206.80;;;;;;;9.70;82.02;99877.06;4981939;28;20058;-58
2023/01/02 06:04:38;;;;;;;485.15;210.82;;;;;;;9.33;82.81;99880.84;4996687;28;20364;-57
2023/01/02 06:07:27;;;;;;;478.48;207.77;;;;;;;9.55;82.98;99883.97;4991412;28;20058;-60
2023/01/02 06:10:09;;;;;;;454.90;199.32;;;;;;;9.75;82.30;99886.19;4985513;28;20050;-59
2023/01/02 06:12:58;;;;;;;454.88;204.15;;;;;;;9.55;82.08;99884.78;4991418;28;20049;-60
2023/01/02 06:15:40;;;;;;;445.30;197.68;;;;;;;9.77;81.81;99873.66;4979127;28;20089;-59
2023/01/02 06:18:30;;;;;;;447.35;197.07;;;;;;;10.04;81.06;99872.59;4986904;28;20568;-60
2023/01/02 06:21:13;;;;;;;;;;;;;;;10.42;80.92;99863.28;4988136;28;20061;-60
2023/01/02 06:24:03;;;;;;;410.77;178.70;;;;;;;10.47;79.34;99861.00;4982359;28;19929;-60
2023/01/02 06:26:45;;;;;;;428.77;185.18;;;;;;;10.80;79.93;99856.53;4988827;28;20054;-59
2023/01/02 06:29:35;;;;;;;408.92;178.02;;;;;;;10.98;77.86;99856.38;4986921;28;20157;-58
2023/01/02 06:32:24;;;;;;;424.58;190.77;;;;;;;11.13;77.16;99852.88;4988808;28;20081;-60
2023/01/02 06:35:13;;;;;;;381.25;170.93;;;;;;;11.11;76.67;99846.06;4992713;28;20128;-57
2023/01/02 06:37:55;;;;;;;387.05;175.10;;;;;;;11.22;77.15;99843.94;4988600;28;20062;-60
2023/01/02 06:40:44;;;;;;;390.60;178.10;;;;;;;11.28;77.63;99837.94;4978736;28;20051;-60
2023/01/02 06:43:27;;;;;;;360.27;169.23;;;;;;;11.40;76.23;99825.16;4987927;28;20062;-60
2023/01/02 06:46:18;;;;;;;385.80;172.55;;;;;;;11.60;76.29;99820.25;4985617;28;20050;-60
2023/01/02 06:49:00;;;;;;;398.00;178.23;;;;;;;11.59;74.77;99805.38;4972901;28;20196;-61
2023/01/02 06:51:49;;;;;;;412.08;187.05;;;;;;;12.21;73.52;99810.72;4982004;28;20061;-60
2023/01/02 06:54:38;;;;;;;376.75;174.52;;;;;;;12.56;71.77;99816.28;4985781;28;20772;-60
2023/01/02 06:57:27;;;;;;;398.23;183.05;;;;;;;12.74;71.18;99808.00;4988129;28;20046;-60
2023/01/02 07:00:17;;;;;;;398.42;187.80;;;;;;;12.94;70.61;99808.31;4985693;28;20624;-60
2023/01/02 07:03:06;;;;;;;407.38;188.35;;;;;;;12.96;70.57;99808.97;4985916;28;20081;-60
2023/01/02 07:05:48;;;;;;;351.02;165.98;;;;;;;13.40;70.20;99799.22;4982556;28;20046;-61
2023/01/02 07:08:38;;;;;;;323.42;155.23;;;;;;;13.77;70.00;99789.44;4985041;28;20158;-60
2023/01/02 07:11:23;;;;;;;376.27;170.68;;;;;;;13.55;68.74;99788.56;4986337;28;20060;-60
2023/01/02 07:14:12;;;;;;;357.58;169.50;;;;;;;13.60;68.97;99785.34;4986521;28;20046;-61
2023/01/02 07:16:54;;;;;;;360.60;172.63;;;;;;;13.64;68.35;99781.31;4988615;28;20046;-60
2023/01/02 07:19:43;;;;;;;350.05;174.40;;;;;;;13.78;68.02;99777.78;4984651;28;21522;-60
2023/01/02 07:22:33;;;;;;;356.90;173.18;;;;;;;14.08;67.51;99770.53;4984651;28;20069;-60
2023/01/02 07:25:22;;;;;;;395.27;183.82;;;;;;;14.15;67.38;99766.97;4985219;28;20046;-60
2023/01/02 07:28:04;;;;;;;380.77;184.77;;;;;;;14.23;67.34;99758.00;4993392;28;20089;-60
2023/01/02 07:30:53;;;;;;;392.40;190.57;;;;;;;14.38;66.50;99758.81;4989704;28;20061;-60
2023/01/02 07:33:35;;;;;;;380.60;188.30;;;;;;;14.64;66.98;99752.88;4971179;28;20858;-60
2023/01/02 07:36:25;;;;;;;394.73;191.90;;;;;;;14.49;65.45;99744.97;4985326;28;20056;-61
2023/01/02 07:39:08;;;;;;;395.90;194.70;;;;;;;14.57;65.79;99741.31;4981548;28;20105;-60
2023/01/02 07:41:57;;;;;;;415.08;205.02;;;;;;;14.73;63.99;99733.91;4982329;28;20073;-60
2023/01/02 07:44:39;;;;;;;439.85;215.30;;;;;;;14.85;63.87;99731.50;4980781;28;20123;-60
2023/01/02 07:47:28;;;;;;;432.67;213.10;;;;;;;15.10;63.75;99729.19;4980839;28;20141;-60
2023/01/02 07:50:16;;;;;;;445.05;216.52;;;;;;;15.19;64.25;99726.19;4986527;28;20038;-60
2023/01/02 07:53:11;;;;;;;415.08;213.55;;;;;;;15.42;62.94;99722.38;4989888;28;20052;-61
2023/01/02 07:55:53;;;;;;;409.15;202.82;;;;;;;15.29;61.63;99712.47;4985115;28;20053;-60
2023/01/02 07:58:42;;;;;;;421.00;211.70;;;;;;;15.54;61.64;99715.47;4991682;28;20139;-60
2023/01/02 08:01:31;;;;;;;386.75;196.25;;;;;;;15.61;61.45;99703.00;4989970;28;20619;-60
2023/01/02 08:04:13;;;;;;;385.75;193.48;;;;;;;15.70;61.44;99696.44;4990752;28;20046;-60
2023/01/02 08:07:02;;;;;;;344.30;173.00;;;;;;;15.78;60.38;99701.59;4987769;28;20136;-58
2023/01/02 08:09:44;;;;;;;332.10;164.77;;;;;;;15.76;59.42;99697.47;4985303;28;20149;-57
2023/01/02 08:12:34;;;;;;;363.17;181.00;;;;;;;15.86;59.53;99693.41;4985901;28;20069;-58
2023/01/02 08:15:16;;;;;;;353.73;181.57;;;;;;;15.97;59.12;99686.66;4985336;28;20666;-60
2023/01/02 08:18:05;;;;;;;357.40;186.02;;;;;;;15.64;58.66;99683.91;4971733;28;22506;-61
2023/01/02 08:21:02;;;;;;;334.38;180.65;;;;;;;16.23;57.66;99680.50;4975520;28;20134;-59
2023/01/02 08:23:38;;;;;;;363.02;189.32;;;;;;;16.09;57.85;99683.19;4970622;28;20060;-61
2023/01/02 08:26:33;;;;;;;370.15;192.45;;;;;;;15.77;57.70;99681.25;4983127;28;20052;-58
2023/01/02 08:29:09;;;;;;;356.08;189.73;;;;;;;15.66;59.28;99676.50;4984420;28;20214;-60
2023/01/02 08:32:05;;;;;;;345.00;180.80;;;;;;;16.03;59.28;99669.78;4985338;28;20050;-61
2023/01/02 08:34:40;;;;;;;328.58;178.02;;;;;;;15.98;59.42;99667.72;4966640;28;20051;-61
2023/01/02 08:37:29;;;;;;;322.42;176.45;;;;;;;15.79;60.06;99668.53;4982592;28;20089;-59
2023/01/02 08:40:12;;;;;;;322.58;171.70;;;;;;;15.74;60.43;99657.63;4984940;28;20035;-60
2023/01/02 08:43:01;;;;;;;307.33;168.77;;;;;;;15.97;60.59;99660.75;4983919;28;20058;-60
2023/01/02 08:45:43;;;;;;;331.58;174.07;;;;;;;16.02;60.45;99658.28;4983485;28;20058;-58
2023/01/02 08:48:39;;;;;;;333.02;179.15;;;;;;;16.05;60.84;99657.88;4983306;28;20053;-60
2023/01/02 08:51:28;;;;;;;327.83;181.20;;;;;;;15.64;61.88;99649.19;5001959;28;20061;-61
2023/01/02 08:54:17;;;;;;;320.27;178.68;;;;;;;15.47;62.38;99651.38;5004929;28;20508;-61
2023/01/02 08:57:12;;;;;;;338.60;180.25;;;;;;;15.71;62.53;99650.03;5001335;28;20485;-60
2023/01/02 08:59:47;;;;;;;353.38;190.05;;;;;;;15.73;62.37;99648.78;5009647;28;20064;-59
2023/01/02 09:02:44;;;;;;;358.80;195.93;;;;;;;15.43;62.88;99639.44;4995096;28;20486;-59
2023/01/02 09:05:20;;;;;;;366.65;192.00;;;;;;;15.28;63.52;99636.09;5001675;28;20049;-61
2023/01/02 09:08:16;;;;;;;340.05;184.02;;;;;;;15.53;63.49;99631.91;5004067;28;20060;-59
2023/01/02 09:10:51;;;;;;;364.52;197.13;;;;;;;15.44;63.24;99629.59;5001943;28;20156;-59
2023/01/02 09:13:41;;;;;;;415.90;222.27;;;;;;;15.20;63.01;99625.59;5002290;28;20112;-59
2023/01/02 09:16:23;;;;;;;432.70;222.20;;;;;;;15.22;62.64;99621.69;5007027;28;20412;-59
2023/01/02 09:19:12;;;;;;;408.55;214.27;;;;;;;15.35;62.42;99622.78;4999690;28;20058;-60
2023/01/02 09:22:01;;;;;;;416.00;217.88;;;;;;;15.49;62.82;99616.47;4996802;28;20049;-59
2023/01/02 09:24:56;;;;;;;423.08;227.75;;;;;;;15.38;61.63;99628.53;4995811;28;20056;-60
2023/01/02 09:27:31;;;;;;;428.33;224.25;;;;;;;15.31;61.76;99617.03;5005240;28;20058;-60
2023/01/02 09:30:27;;;;;;;419.88;221.80;;;;;;;15.40;61.86;99615.78;5009782;28;20052;-60
2023/01/02 09:33:03;;;;;;;383.50;198.00;;;;;;;15.51;60.80;99625.13;4992113;28;20088;-60
2023/01/02 09:35:58;;;;;;;369.80;190.20;;;;;;;15.49;60.59;99619.94;5014665;28;20064;-60
2023/01/02 09:38:33;;;;;;;349.38;186.48;;;;;;;15.40;61.00;99617.66;5008658;28;20076;-60
2023/01/02 09:42:00;;;;;;;360.80;187.38;;;;;;;15.55;60.86;99618.34;5007123;28;20066;-60
2023/01/02 09:45:03;;;;;;;317.13;159.00;;;;;;;15.70;59.97;99608.31;5009998;28;20049;-59
2023/01/02 09:48:08;;;;;;;259.40;136.13;;;;;;;15.71;59.30;99608.09;5010115;28;20054;-60
2023/01/02 09:50:57;;;;;;;264.77;140.32;;;;;;;15.73;59.02;99610.56;4992410;28;20083;-60
2023/01/02 09:53:48;;;;;;;284.38;142.38;;;;;;;15.77;58.97;99606.47;4994005;28;20125;-59
2023/01/02 09:56:36;;;;;;;254.63;140.57;;;;;;;15.76;59.09;99607.50;4985070;28;20054;-60
2023/01/02 09:59:38;;;;;;;215.75;122.68;;;;;;;15.78;58.85;99607.28;5002785;28;20156;-60
2023/01/02 10:02:44;;;;;;;211.77;118.00;;;;;;;15.83;58.72;99607.50;5000730;28;20138;-60
2023/01/02 10:05:54;;;;;;;181.90;103.10;;;;;;;15.81;57.72;99604.22;4986558;28;20049;-61
2023/01/02 10:09:06;;;;;;;188.75;100.78;;;;;;;15.73;57.82;99602.56;5003743;28;20050;-60
2023/01/02 10:12:16;;;;;;;178.18;98.63;;;;;;;15.79;58.40;99609.78;4994699;28;20049;-60
2023/01/02 10:15:02;;;;;;;180.63;100.13;;;;;;;15.72;58.63;99599.06;5001492;28;20046;-61
2023/01/02 10:17:57;;;;;;;177.77;100.45;;;;;;;15.71;58.97;99602.75;4991996;28;20092;-61
2023/01/02 10:20:44;;;;;;;178.55;102.38;;;;;;;15.72;59.14;99603.59;5002514;28;20049;-60
2023/01/02 10:23:43;;;;;;;226.07;119.28;;;;;;;15.68;59.92;99597.84;5002397;28;20058;-61
2023/01/02 10:26:31;;;;;;;216.55;119.88;;;;;;;15.66;60.88;99601.75;5001253;28;20049;-60
2023/01/02 10:29:45;;;;;;;250.73;136.95;;;;;;;15.66;61.47;99599.91;5001084;28;20050;-62
2023/01/02 10:32:28;;;;;;;250.15;138.55;;;;;;;15.71;61.35;99600.09;5000561;28;20475;-61
2023/01/02 10:35:28;;;;;;;281.52;147.88;;;;;;;15.54;61.87;99608.69;4999984;28;20046;-61
2023/01/02 10:38:13;;;;;;;290.70;157.93;;;;;;;15.54;62.02;99603.34;4993572;28;20149;-61
2023/01/02 10:41:02;;;;;;;323.38;166.55;;;;;;;15.38;62.95;99604.50;5002769;28;20500;-60
2023/01/02 10:43:52;;;;;;;304.05;169.32;;;;;;;15.15;64.14;99596.84;5003396;28;20866;-60
2023/01/02 10:46:43;;;;;;;308.42;173.13;;;;;;;15.19;63.63;99603.41;4998606;28;20061;-60
2023/01/02 10:49:26;;;;;;;325.55;177.20;;;;;;;15.08;64.67;99609.34;4984686;28;20560;-60
2023/01/02 10:52:36;;;;;;;336.10;182.27;;;;;;;14.88;64.74;99608.41;4985379;28;20054;-59
2023/01/02 10:55:30;;;;;;;352.43;190.13;;;;;;;14.90;65.42;99611.72;4985252;28;20047;-60
2023/01/02 10:58:30;;;;;;;338.50;189.85;;;;;;;14.98;64.99;99608.88;4985586;28;20780;-60
2023/01/02 11:01:17;;;;;;;356.27;193.75;;;;;;;14.80;66.23;99617.41;4985377;28;20043;-61
2023/01/02 11:04:08;;;;;;;355.63;196.70;;;;;;;14.72;66.32;99622.09;4985777;28;20148;-61
2023/01/02 11:07:00;;;;;;;353.70;193.32;;;;;;;14.84;66.28;99615.16;4973410;28;20073;-61
2023/01/02 11:10:01;;;;;;;346.30;194.90;;;;;;;15.00;65.79;99616.69;4986089;28;20066;-60
2023/01/02 11:12:47;;;;;;;362.57;202.17;;;;;;;14.98;65.46;99608.06;4968951;28;20116;-60
2023/01/02 11:15:37;;;;;;;382.80;205.13;;;;;;;14.71;66.15;99613.25;4972311;28;20284;-60
2023/01/02 11:18:26;;;;;;;380.23;207.63;;;;;;;14.57;66.20;99613.38;4984279;28;20057;-61
2023/01/02 11:21:16;;;;;;;387.42;205.55;;;;;;;14.50;66.85;99609.84;4982622;28;20048;-61
2023/01/02 11:24:14;;;;;;;384.13;212.93;;;;;;;14.53;66.92;99610.28;4985314;28;20085;-61
2023/01/02 11:27:08;;;;;;;376.08;206.95;;;;;;;14.77;66.99;99611.66;4985509;28;20058;-60
2023/01/02 11:29:50;;;;;;;383.58;207.15;;;;;;;14.76;66.38;99604.66;4984599;28;20046;-61
2023/01/02 11:32:45;;;;;;;380.35;206.93;;;;;;;14.83;67.18;99603.66;4968424;28;20177;-61
2023/01/02 11:35:45;;;;;;;389.13;211.15;;;;;;;14.73;66.91;99610.41;4985923;28;20112;-63
2023/01/02 11:38:46;;;;;;;368.55;201.77;;;;;;;14.45;67.42;99618.44;4984137;28;20141;-62
2023/01/02 11:45:13;;;;;;;386.38;202.40;;;;;;;14.15;69.22;99620.44;4986416;28;20066;-60
2023/01/02 11:48:03;;;;;;;331.45;178.73;;;;;;;14.08;69.95;99621.38;4985860;28;20051;-60
2023/01/02 11:50:59;;;;;;;270.58;150.20;;;;;;;13.93;70.50;99616.97;4982171;28;20086;-59
2023/01/02 11:53:40;;;;;;;272.35;143.40;;;;;;;13.88;70.94;99615.91;4981231;28;20607;-62
2023/01/02 11:56:35;;;;;;;258.55;136.07;;;;;;;13.74;71.29;99614.94;4980711;28;20099;-62
2023/01/02 11:59:22;;;;;;;240.90;127.35;;;;;;;13.38;72.67;99614.97;4985975;28;20061;-62
2023/01/02 12:02:19;;;;;;;232.48;124.10;;;;;;;13.34;73.31;99619.03;4995204;28;20053;-61
2023/01/02 12:05:02;;;;;;;227.38;120.38;;;;;;;13.04;74.59;99618.25;4962928;28;20056;-62
2023/01/02 12:08:08;;;;;;;225.05;118.82;;;;;;;12.93;74.78;99609.91;4976586;28;20125;-58
2023/01/02 12:11:09;;;;;;;230.85;117.53;;;;;;;12.89;74.97;99619.25;4976620;28;20132;-61
2023/01/02 12:14:29;;;;;;;230.65;116.13;;;;;;;12.80;75.56;99625.66;4979873;28;20073;-63
2023/01/02 12:17:27;;;;;;;217.15;113.03;;;;;;;12.69;75.49;99623.50;4978947;28;20057;-65
2023/01/02 12:20:49;;;;;;;221.45;115.22;;;;;;;12.48;76.06;99630.34;4980305;28;20383;-59
2023/01/02 12:23:46;;;;;;;217.98;109.97;;;;;;;12.53;76.01;99635.09;4980429;28;20081;-60
2023/01/02 12:26:41;;;;;;;224.25;116.85;;;;;;;12.33;76.38;99637.47;4981448;28;20066;-61
2023/01/02 12:30:01;;;;;;;218.93;115.32;;;;;;;12.11;77.01;99635.69;4984086;28;20109;-60
2023/01/02 12:33:11;;;;;;;209.07;113.93;;;;;;;11.94;77.36;99640.31;4973822;28;20165;-60
2023/01/02 12:36:26;;;;;;;216.50;114.03;;;;;;;11.73;78.53;99642.78;4975529;28;20366;-60
2023/01/02 12:39:56;;;;;;;236.13;115.32;;;;;;;11.56;79.61;99647.34;4981784;28;20541;-60
2023/01/02 12:43:08;;;;;;;223.23;113.72;;;;;;;11.78;78.57;99645.72;4940053;28;20055;-60
2023/01/02 12:46:32;;;;;;;226.68;115.82;;;;;;;11.70;78.65;99662.50;4930272;28;20200;-60
2023/01/02 12:49:32;;;;;;;232.20;117.45;;;;;;;11.42;78.51;99663.19;4988328;28;20057;-59
2023/01/02 12:52:42;;;;;;;232.68;119.97;;;;;;;11.18;80.09;99658.81;5010541;28;20053;-60
2023/01/02 12:55:39;;;;;;;228.25;119.63;;;;;;;11.31;80.34;99658.28;5003835;28;20925;-60
2023/01/02 12:58:55;;;;;;;;;;;;;;;11.43;79.45;99662.16;5000917;28;20054;-60
2023/01/02 13:02:14;;;;;;;249.13;121.97;;;;;;;11.25;78.79;99671.22;4984755;28;19953;-61
2023/01/02 13:05:16;;;;;;;252.57;122.32;;;;;;;10.89;79.57;99679.81;4965945;28;20509;-59
2023/01/02 13:08:12;;;;;;;255.13;124.30;;;;;;;10.79;80.36;99680.00;5006025;28;20635;-59